sensor_id;sensor_type;location;lat;lon;timestamp;P1;durP1;ratioP1;P2;durP2;ratioP2
8327;SDS011;4201;48.754;8.864;2023-04-06T00:00:50;22.00;;;14.30;;
8327;SDS011;4201;48.754;8.864;2023-04-06T00:03:16;21.57;;;14.60;;
8327;SDS011;4201;48.754;8.864;2023-04-06T00:05:42;22.27;;;15.17;;
8327;SDS011;4201;48.754;8.864;2023-04-06T00:08:09;17.93;;;13.23;;
8327;SDS011;4201;48.754;8.864;2023-04-06T00:10:35;23.17;;;15.93;;
8327;SDS011;4201;48.754;8.864;2023-04-06T00:13:02;20.10;;;14.47;;
8327;SDS011;4201;48.754;8.864;2023-04-06T00:15:43;22.60;;;15.73;;
8327;SDS011;4201;48.754;8.864;2023-04-06T00:18:11;19.30;;;14.87;;
8327;SDS011;4201;48.754;8.864;2023-04-06T00:20:38;27.37;;;16.77;;
8327;SDS011;4201;48.754;8.864;2023-04-06T00:23:04;21.43;;;15.10;;
8327;SDS011;4201;48.754;8.864;2023-04-06T00:25:31;21.13;;;14.40;;
8327;SDS011;4201;48.754;8.864;2023-04-06T00:27:57;18.37;;;14.10;;
8327;SDS011;4201;48.754;8.864;2023-04-06T00:30:23;17.80;;;14.40;;
8327;SDS011;4201;48.754;8.864;2023-04-06T00:32:50;19.53;;;13.77;;
8327;SDS011;4201;48.754;8.864;2023-04-06T00:35:18;17.20;;;14.10;;
8327;SDS011;4201;48.754;8.864;2023-04-06T00:37:45;17.57;;;12.43;;
8327;SDS011;4201;48.754;8.864;2023-04-06T00:40:12;19.23;;;13.37;;
8327;SDS011;4201;48.754;8.864;2023-04-06T00:42:38;23.03;;;15.37;;
8327;SDS011;4201;48.754;8.864;2023-04-06T00:45:05;17.63;;;13.90;;
8327;SDS011;4201;48.754;8.864;2023-04-06T00:47:32;16.50;;;12.13;;
8327;SDS011;4201;48.754;8.864;2023-04-06T00:49:59;18.50;;;14.50;;
8327;SDS011;4201;48.754;8.864;2023-04-06T00:52:26;19.60;;;14.17;;
8327;SDS011;4201;48.754;8.864;2023-04-06T00:54:54;26.00;;;14.60;;
8327;SDS011;4201;48.754;8.864;2023-04-06T00:57:20;17.10;;;14.00;;
8327;SDS011;4201;48.754;8.864;2023-04-06T00:59:47;21.33;;;14.40;;
8327;SDS011;4201;48.754;8.864;2023-04-06T01:02:13;23.20;;;16.13;;
8327;SDS011;4201;48.754;8.864;2023-04-06T01:04:40;22.70;;;16.20;;
8327;SDS011;4201;48.754;8.864;2023-04-06T01:07:06;25.93;;;17.37;;
8327;SDS011;4201;48.754;8.864;2023-04-06T01:09:33;21.57;;;15.07;;
8327;SDS011;4201;48.754;8.864;2023-04-06T01:12:00;21.23;;;15.57;;
8327;SDS011;4201;48.754;8.864;2023-04-06T01:14:27;23.20;;;17.30;;
8327;SDS011;4201;48.754;8.864;2023-04-06T01:16:53;22.57;;;15.20;;
8327;SDS011;4201;48.754;8.864;2023-04-06T01:19:20;23.27;;;16.37;;
8327;SDS011;4201;48.754;8.864;2023-04-06T01:21:48;26.97;;;15.77;;
8327;SDS011;4201;48.754;8.864;2023-04-06T01:24:16;23.37;;;15.73;;
8327;SDS011;4201;48.754;8.864;2023-04-06T01:26:43;21.43;;;15.00;;
8327;SDS011;4201;48.754;8.864;2023-04-06T01:29:09;21.60;;;12.80;;
8327;SDS011;4201;48.754;8.864;2023-04-06T01:31:35;16.30;;;12.80;;
8327;SDS011;4201;48.754;8.864;2023-04-06T01:34:02;16.37;;;12.90;;
8327;SDS011;4201;48.754;8.864;2023-04-06T01:36:28;15.43;;;13.30;;
8327;SDS011;4201;48.754;8.864;2023-04-06T01:38:54;18.83;;;14.10;;
8327;SDS011;4201;48.754;8.864;2023-04-06T01:41:22;26.53;;;15.40;;
8327;SDS011;4201;48.754;8.864;2023-04-06T01:43:48;20.17;;;14.23;;
8327;SDS011;4201;48.754;8.864;2023-04-06T01:46:19;28.13;;;15.97;;
8327;SDS011;4201;48.754;8.864;2023-04-06T01:48:45;20.80;;;15.93;;
8327;SDS011;4201;48.754;8.864;2023-04-06T01:51:11;21.80;;;16.57;;
8327;SDS011;4201;48.754;8.864;2023-04-06T01:53:38;20.20;;;15.53;;
8327;SDS011;4201;48.754;8.864;2023-04-06T01:56:04;21.67;;;15.50;;
8327;SDS011;4201;48.754;8.864;2023-04-06T01:58:32;17.70;;;14.20;;
8327;SDS011;4201;48.754;8.864;2023-04-06T02:00:59;20.97;;;14.93;;
8327;SDS011;4201;48.754;8.864;2023-04-06T02:03:25;19.93;;;14.93;;
8327;SDS011;4201;48.754;8.864;2023-04-06T02:05:52;19.67;;;14.07;;
8327;SDS011;4201;48.754;8.864;2023-04-06T02:08:18;22.07;;;15.23;;
8327;SDS011;4201;48.754;8.864;2023-04-06T02:10:44;20.23;;;16.47;;
8327;SDS011;4201;48.754;8.864;2023-04-06T02:13:11;18.13;;;14.17;;
8327;SDS011;4201;48.754;8.864;2023-04-06T02:15:38;19.83;;;13.83;;
8327;SDS011;4201;48.754;8.864;2023-04-06T02:18:05;20.20;;;11.97;;
8327;SDS011;4201;48.754;8.864;2023-04-06T02:20:31;16.07;;;12.77;;
8327;SDS011;4201;48.754;8.864;2023-04-06T02:22:58;18.00;;;13.13;;
8327;SDS011;4201;48.754;8.864;2023-04-06T02:25:25;19.87;;;13.57;;
8327;SDS011;4201;48.754;8.864;2023-04-06T02:27:51;19.60;;;14.23;;
8327;SDS011;4201;48.754;8.864;2023-04-06T02:30:17;21.93;;;14.20;;
8327;SDS011;4201;48.754;8.864;2023-04-06T02:32:45;19.40;;;14.23;;
8327;SDS011;4201;48.754;8.864;2023-04-06T02:35:12;21.40;;;14.10;;
8327;SDS011;4201;48.754;8.864;2023-04-06T02:37:38;19.30;;;13.80;;
8327;SDS011;4201;48.754;8.864;2023-04-06T02:40:05;20.37;;;14.20;;
8327;SDS011;4201;48.754;8.864;2023-04-06T02:42:31;19.40;;;13.97;;
8327;SDS011;4201;48.754;8.864;2023-04-06T02:44:58;21.90;;;13.00;;
8327;SDS011;4201;48.754;8.864;2023-04-06T02:47:24;20.27;;;14.30;;
8327;SDS011;4201;48.754;8.864;2023-04-06T02:49:52;21.43;;;14.47;;
8327;SDS011;4201;48.754;8.864;2023-04-06T02:52:18;19.70;;;16.20;;
8327;SDS011;4201;48.754;8.864;2023-04-06T02:54:45;23.70;;;15.77;;
8327;SDS011;4201;48.754;8.864;2023-04-06T02:57:11;20.20;;;15.23;;
8327;SDS011;4201;48.754;8.864;2023-04-06T02:59:37;20.57;;;15.13;;
8327;SDS011;4201;48.754;8.864;2023-04-06T03:02:04;20.53;;;15.10;;
8327;SDS011;4201;48.754;8.864;2023-04-06T03:04:30;21.07;;;14.53;;
8327;SDS011;4201;48.754;8.864;2023-04-06T03:06:58;23.10;;;15.90;;
8327;SDS011;4201;48.754;8.864;2023-04-06T03:09:24;18.20;;;14.60;;
8327;SDS011;4201;48.754;8.864;2023-04-06T03:11:50;21.03;;;14.43;;
8327;SDS011;4201;48.754;8.864;2023-04-06T03:14:17;20.17;;;13.70;;
8327;SDS011;4201;48.754;8.864;2023-04-06T03:16:46;21.53;;;14.63;;
8327;SDS011;4201;48.754;8.864;2023-04-06T03:19:12;20.33;;;14.90;;
8327;SDS011;4201;48.754;8.864;2023-04-06T03:21:39;22.77;;;15.07;;
8327;SDS011;4201;48.754;8.864;2023-04-06T03:24:07;22.23;;;14.40;;
8327;SDS011;4201;48.754;8.864;2023-04-06T03:26:34;21.83;;;14.80;;
8327;SDS011;4201;48.754;8.864;2023-04-06T03:29:00;20.13;;;15.37;;
8327;SDS011;4201;48.754;8.864;2023-04-06T03:31:26;20.37;;;15.80;;
8327;SDS011;4201;48.754;8.864;2023-04-06T03:33:53;19.97;;;13.77;;
8327;SDS011;4201;48.754;8.864;2023-04-06T03:36:19;24.93;;;14.97;;
8327;SDS011;4201;48.754;8.864;2023-04-06T03:38:46;20.40;;;14.50;;
8327;SDS011;4201;48.754;8.864;2023-04-06T03:41:13;25.90;;;16.50;;
8327;SDS011;4201;48.754;8.864;2023-04-06T03:43:40;134.63;;;59.00;;
8327;SDS011;4201;48.754;8.864;2023-04-06T03:46:06;67.53;;;36.53;;
8327;SDS011;4201;48.754;8.864;2023-04-06T03:48:32;31.27;;;20.00;;
8327;SDS011;4201;48.754;8.864;2023-04-06T03:50:59;24.03;;;15.40;;
8327;SDS011;4201;48.754;8.864;2023-04-06T03:53:25;21.60;;;14.47;;
8327;SDS011;4201;48.754;8.864;2023-04-06T03:55:52;19.00;;;13.00;;
8327;SDS011;4201;48.754;8.864;2023-04-06T03:58:19;22.53;;;14.73;;
8327;SDS011;4201;48.754;8.864;2023-04-06T04:00:45;26.00;;;15.73;;
8327;SDS011;4201;48.754;8.864;2023-04-06T04:03:12;27.10;;;15.33;;
8327;SDS011;4201;48.754;8.864;2023-04-06T04:05:38;21.53;;;14.63;;
8327;SDS011;4201;48.754;8.864;2023-04-06T04:08:05;26.60;;;14.97;;
8327;SDS011;4201;48.754;8.864;2023-04-06T04:10:31;25.17;;;14.20;;
8327;SDS011;4201;48.754;8.864;2023-04-06T04:12:58;25.73;;;15.97;;
8327;SDS011;4201;48.754;8.864;2023-04-06T04:15:25;30.73;;;16.40;;
8327;SDS011;4201;48.754;8.864;2023-04-06T04:17:52;22.43;;;13.80;;
8327;SDS011;4201;48.754;8.864;2023-04-06T04:20:18;23.77;;;14.90;;
8327;SDS011;4201;48.754;8.864;2023-04-06T04:22:44;19.00;;;13.23;;
8327;SDS011;4201;48.754;8.864;2023-04-06T04:25:11;23.03;;;14.63;;
8327;SDS011;4201;48.754;8.864;2023-04-06T04:27:37;22.33;;;13.63;;
8327;SDS011;4201;48.754;8.864;2023-04-06T04:30:04;20.87;;;13.87;;
8327;SDS011;4201;48.754;8.864;2023-04-06T04:32:32;23.23;;;14.37;;
8327;SDS011;4201;48.754;8.864;2023-04-06T04:34:58;21.40;;;14.93;;
8327;SDS011;4201;48.754;8.864;2023-04-06T04:37:24;27.80;;;15.80;;
8327;SDS011;4201;48.754;8.864;2023-04-06T04:39:51;21.67;;;15.90;;
8327;SDS011;4201;48.754;8.864;2023-04-06T04:42:17;17.93;;;14.50;;
8327;SDS011;4201;48.754;8.864;2023-04-06T04:44:43;21.87;;;14.57;;
8327;SDS011;4201;48.754;8.864;2023-04-06T04:47:10;21.93;;;16.20;;
8327;SDS011;4201;48.754;8.864;2023-04-06T04:49:37;27.77;;;18.57;;
8327;SDS011;4201;48.754;8.864;2023-04-06T04:52:04;24.10;;;16.97;;
8327;SDS011;4201;48.754;8.864;2023-04-06T04:54:30;27.00;;;17.13;;
8327;SDS011;4201;48.754;8.864;2023-04-06T04:56:56;26.60;;;15.97;;
8327;SDS011;4201;48.754;8.864;2023-04-06T04:59:23;26.57;;;17.30;;
8327;SDS011;4201;48.754;8.864;2023-04-06T05:01:49;26.67;;;16.13;;
8327;SDS011;4201;48.754;8.864;2023-04-06T05:04:16;21.40;;;14.60;;
8327;SDS011;4201;48.754;8.864;2023-04-06T05:06:43;23.10;;;15.20;;
8327;SDS011;4201;48.754;8.864;2023-04-06T05:09:10;24.80;;;15.50;;
8327;SDS011;4201;48.754;8.864;2023-04-06T05:11:36;21.97;;;15.20;;
8327;SDS011;4201;48.754;8.864;2023-04-06T05:14:02;25.50;;;16.37;;
8327;SDS011;4201;48.754;8.864;2023-04-06T05:16:29;19.87;;;14.23;;
8327;SDS011;4201;48.754;8.864;2023-04-06T05:18:55;18.43;;;13.33;;
8327;SDS011;4201;48.754;8.864;2023-04-06T05:21:22;23.93;;;13.40;;
8327;SDS011;4201;48.754;8.864;2023-04-06T05:23:50;21.87;;;15.63;;
8327;SDS011;4201;48.754;8.864;2023-04-06T05:26:17;24.63;;;17.50;;
8327;SDS011;4201;48.754;8.864;2023-04-06T05:28:43;24.40;;;16.77;;
8327;SDS011;4201;48.754;8.864;2023-04-06T05:31:10;22.43;;;16.97;;
8327;SDS011;4201;48.754;8.864;2023-04-06T05:33:37;25.47;;;18.80;;
8327;SDS011;4201;48.754;8.864;2023-04-06T05:36:03;32.17;;;17.70;;
8327;SDS011;4201;48.754;8.864;2023-04-06T05:38:31;24.13;;;18.07;;
8327;SDS011;4201;48.754;8.864;2023-04-06T05:41:00;20.00;;;15.60;;
8327;SDS011;4201;48.754;8.864;2023-04-06T05:43:26;19.93;;;14.70;;
8327;SDS011;4201;48.754;8.864;2023-04-06T05:45:52;15.17;;;12.00;;
8327;SDS011;4201;48.754;8.864;2023-04-06T05:48:18;20.57;;;15.10;;
8327;SDS011;4201;48.754;8.864;2023-04-06T05:50:47;19.63;;;14.13;;
8327;SDS011;4201;48.754;8.864;2023-04-06T05:53:13;18.57;;;13.13;;
8327;SDS011;4201;48.754;8.864;2023-04-06T05:55:40;14.43;;;10.60;;
8327;SDS011;4201;48.754;8.864;2023-04-06T05:58:07;17.33;;;12.80;;
8327;SDS011;4201;48.754;8.864;2023-04-06T06:00:34;15.00;;;10.37;;
8327;SDS011;4201;48.754;8.864;2023-04-06T06:03:00;13.60;;;9.90;;
8327;SDS011;4201;48.754;8.864;2023-04-06T06:05:29;17.60;;;12.03;;
8327;SDS011;4201;48.754;8.864;2023-04-06T06:07:55;18.93;;;12.00;;
8327;SDS011;4201;48.754;8.864;2023-04-06T06:10:21;16.33;;;12.43;;
8327;SDS011;4201;48.754;8.864;2023-04-06T06:12:48;16.80;;;12.07;;
8327;SDS011;4201;48.754;8.864;2023-04-06T06:15:15;14.83;;;12.60;;
8327;SDS011;4201;48.754;8.864;2023-04-06T06:17:41;16.27;;;12.60;;
8327;SDS011;4201;48.754;8.864;2023-04-06T06:20:08;16.57;;;12.90;;
8327;SDS011;4201;48.754;8.864;2023-04-06T06:22:35;14.43;;;11.50;;
8327;SDS011;4201;48.754;8.864;2023-04-06T06:25:01;18.83;;;11.80;;
8327;SDS011;4201;48.754;8.864;2023-04-06T06:27:27;13.20;;;10.43;;
8327;SDS011;4201;48.754;8.864;2023-04-06T06:29:53;14.47;;;10.90;;
8327;SDS011;4201;48.754;8.864;2023-04-06T06:32:21;15.70;;;12.30;;
8327;SDS011;4201;48.754;8.864;2023-04-06T06:34:48;16.13;;;10.93;;
8327;SDS011;4201;48.754;8.864;2023-04-06T06:37:14;15.97;;;11.13;;
8327;SDS011;4201;48.754;8.864;2023-04-06T06:39:40;14.63;;;11.20;;
8327;SDS011;4201;48.754;8.864;2023-04-06T06:42:06;17.13;;;10.83;;
8327;SDS011;4201;48.754;8.864;2023-04-06T06:44:32;20.00;;;17.20;;
8327;SDS011;4201;48.754;8.864;2023-04-06T06:46:59;18.10;;;13.00;;
8327;SDS011;4201;48.754;8.864;2023-04-06T06:49:26;17.27;;;12.73;;
8327;SDS011;4201;48.754;8.864;2023-04-06T06:51:53;13.10;;;11.13;;
8327;SDS011;4201;48.754;8.864;2023-04-06T06:54:19;15.30;;;11.23;;
8327;SDS011;4201;48.754;8.864;2023-04-06T06:56:46;14.77;;;10.70;;
8327;SDS011;4201;48.754;8.864;2023-04-06T06:59:12;13.27;;;10.67;;
8327;SDS011;4201;48.754;8.864;2023-04-06T07:01:38;12.17;;;10.30;;
8327;SDS011;4201;48.754;8.864;2023-04-06T07:04:04;19.93;;;11.87;;
8327;SDS011;4201;48.754;8.864;2023-04-06T07:06:34;12.70;;;10.60;;
8327;SDS011;4201;48.754;8.864;2023-04-06T07:09:00;12.70;;;9.53;;
8327;SDS011;4201;48.754;8.864;2023-04-06T07:11:28;13.57;;;10.70;;
8327;SDS011;4201;48.754;8.864;2023-04-06T07:13:54;13.10;;;10.40;;
8327;SDS011;4201;48.754;8.864;2023-04-06T07:16:20;13.00;;;11.10;;
8327;SDS011;4201;48.754;8.864;2023-04-06T07:18:47;14.30;;;11.17;;
8327;SDS011;4201;48.754;8.864;2023-04-06T07:21:13;13.20;;;10.23;;
8327;SDS011;4201;48.754;8.864;2023-04-06T07:23:41;15.80;;;11.90;;
8327;SDS011;4201;48.754;8.864;2023-04-06T07:26:07;15.30;;;12.07;;
8327;SDS011;4201;48.754;8.864;2023-04-06T07:28:33;14.70;;;9.70;;
8327;SDS011;4201;48.754;8.864;2023-04-06T07:31:00;12.10;;;10.87;;
8327;SDS011;4201;48.754;8.864;2023-04-06T07:33:27;16.20;;;10.90;;
8327;SDS011;4201;48.754;8.864;2023-04-06T07:35:54;12.40;;;10.97;;
8327;SDS011;4201;48.754;8.864;2023-04-06T07:38:21;17.17;;;11.30;;
8327;SDS011;4201;48.754;8.864;2023-04-06T07:40:48;16.97;;;11.60;;
8327;SDS011;4201;48.754;8.864;2023-04-06T07:43:14;14.13;;;12.30;;
8327;SDS011;4201;48.754;8.864;2023-04-06T07:45:41;14.50;;;11.37;;
8327;SDS011;4201;48.754;8.864;2023-04-06T07:48:07;14.90;;;11.80;;
8327;SDS011;4201;48.754;8.864;2023-04-06T07:50:35;12.00;;;9.60;;
8327;SDS011;4201;48.754;8.864;2023-04-06T07:53:01;14.10;;;10.23;;
8327;SDS011;4201;48.754;8.864;2023-04-06T07:55:27;14.57;;;11.20;;
8327;SDS011;4201;48.754;8.864;2023-04-06T07:57:55;13.97;;;10.80;;
8327;SDS011;4201;48.754;8.864;2023-04-06T08:00:21;11.03;;;9.83;;
8327;SDS011;4201;48.754;8.864;2023-04-06T08:02:47;12.40;;;9.67;;
8327;SDS011;4201;48.754;8.864;2023-04-06T08:05:14;11.67;;;10.00;;
8327;SDS011;4201;48.754;8.864;2023-04-06T08:07:40;14.50;;;10.73;;
8327;SDS011;4201;48.754;8.864;2023-04-06T08:10:07;12.97;;;10.23;;
8327;SDS011;4201;48.754;8.864;2023-04-06T08:12:34;14.53;;;11.70;;
8327;SDS011;4201;48.754;8.864;2023-04-06T08:15:02;15.37;;;11.50;;
8327;SDS011;4201;48.754;8.864;2023-04-06T08:17:33;12.80;;;10.43;;
8327;SDS011;4201;48.754;8.864;2023-04-06T08:20:00;10.73;;;9.30;;
8327;SDS011;4201;48.754;8.864;2023-04-06T08:22:28;11.07;;;9.70;;
8327;SDS011;4201;48.754;8.864;2023-04-06T08:24:54;13.30;;;9.53;;
8327;SDS011;4201;48.754;8.864;2023-04-06T08:27:20;10.63;;;9.50;;
8327;SDS011;4201;48.754;8.864;2023-04-06T08:29:47;12.23;;;9.10;;
8327;SDS011;4201;48.754;8.864;2023-04-06T08:32:15;14.10;;;8.93;;
8327;SDS011;4201;48.754;8.864;2023-04-06T08:34:41;12.60;;;8.50;;
8327;SDS011;4201;48.754;8.864;2023-04-06T08:37:07;13.10;;;8.10;;
8327;SDS011;4201;48.754;8.864;2023-04-06T08:39:34;10.77;;;9.07;;
8327;SDS011;4201;48.754;8.864;2023-04-06T08:42:00;12.53;;;7.77;;
8327;SDS011;4201;48.754;8.864;2023-04-06T08:44:28;11.83;;;9.30;;
8327;SDS011;4201;48.754;8.864;2023-04-06T08:46:54;14.10;;;9.37;;
8327;SDS011;4201;48.754;8.864;2023-04-06T08:49:22;11.80;;;9.40;;
8327;SDS011;4201;48.754;8.864;2023-04-06T08:51:48;12.37;;;10.07;;
8327;SDS011;4201;48.754;8.864;2023-04-06T08:54:15;12.23;;;10.40;;
8327;SDS011;4201;48.754;8.864;2023-04-06T08:56:41;15.43;;;11.43;;
8327;SDS011;4201;48.754;8.864;2023-04-06T08:59:08;14.30;;;10.00;;
8327;SDS011;4201;48.754;8.864;2023-04-06T09:01:36;14.00;;;10.47;;
8327;SDS011;4201;48.754;8.864;2023-04-06T09:04:05;16.50;;;9.97;;
8327;SDS011;4201;48.754;8.864;2023-04-06T09:06:35;16.90;;;9.87;;
8327;SDS011;4201;48.754;8.864;2023-04-06T09:09:02;17.13;;;10.33;;
8327;SDS011;4201;48.754;8.864;2023-04-06T09:11:29;16.17;;;12.57;;
8327;SDS011;4201;48.754;8.864;2023-04-06T09:13:55;15.80;;;10.27;;
8327;SDS011;4201;48.754;8.864;2023-04-06T09:16:22;13.80;;;10.50;;
8327;SDS011;4201;48.754;8.864;2023-04-06T09:18:49;15.60;;;11.70;;
8327;SDS011;4201;48.754;8.864;2023-04-06T09:21:16;15.80;;;10.70;;
8327;SDS011;4201;48.754;8.864;2023-04-06T09:23:44;13.73;;;11.00;;
8327;SDS011;4201;48.754;8.864;2023-04-06T09:26:11;14.50;;;9.50;;
8327;SDS011;4201;48.754;8.864;2023-04-06T09:28:41;28.90;;;9.80;;
8327;SDS011;4201;48.754;8.864;2023-04-06T09:31:07;13.00;;;9.60;;
8327;SDS011;4201;48.754;8.864;2023-04-06T09:33:36;11.00;;;9.70;;
8327;SDS011;4201;48.754;8.864;2023-04-06T09:36:04;14.80;;;10.30;;
8327;SDS011;4201;48.754;8.864;2023-04-06T09:38:30;12.70;;;10.60;;
8327;SDS011;4201;48.754;8.864;2023-04-06T09:40:58;11.43;;;9.43;;
8327;SDS011;4201;48.754;8.864;2023-04-06T09:43:24;11.73;;;9.13;;
8327;SDS011;4201;48.754;8.864;2023-04-06T09:45:51;11.37;;;9.67;;
8327;SDS011;4201;48.754;8.864;2023-04-06T09:48:17;13.57;;;10.57;;
8327;SDS011;4201;48.754;8.864;2023-04-06T09:50:44;12.63;;;10.57;;
8327;SDS011;4201;48.754;8.864;2023-04-06T09:53:10;14.03;;;10.30;;
8327;SDS011;4201;48.754;8.864;2023-04-06T09:55:40;14.00;;;9.73;;
8327;SDS011;4201;48.754;8.864;2023-04-06T09:58:09;14.03;;;10.80;;
8327;SDS011;4201;48.754;8.864;2023-04-06T10:00:40;14.10;;;11.33;;
8327;SDS011;4201;48.754;8.864;2023-04-06T10:03:10;16.47;;;11.10;;
8327;SDS011;4201;48.754;8.864;2023-04-06T10:05:42;13.67;;;10.00;;
8327;SDS011;4201;48.754;8.864;2023-04-06T10:08:09;13.53;;;10.90;;
8327;SDS011;4201;48.754;8.864;2023-04-06T10:10:36;12.23;;;10.23;;
8327;SDS011;4201;48.754;8.864;2023-04-06T10:13:03;15.13;;;10.50;;
8327;SDS011;4201;48.754;8.864;2023-04-06T10:15:31;14.50;;;11.20;;
8327;SDS011;4201;48.754;8.864;2023-04-06T10:17:57;13.93;;;10.93;;
8327;SDS011;4201;48.754;8.864;2023-04-06T10:20:25;13.23;;;11.10;;
8327;SDS011;4201;48.754;8.864;2023-04-06T10:22:55;14.40;;;9.00;;
8327;SDS011;4201;48.754;8.864;2023-04-06T10:25:28;12.03;;;10.17;;
8327;SDS011;4201;48.754;8.864;2023-04-06T10:28:01;13.03;;;9.30;;
8327;SDS011;4201;48.754;8.864;2023-04-06T10:30:27;15.53;;;10.17;;
8327;SDS011;4201;48.754;8.864;2023-04-06T10:32:55;16.00;;;11.33;;
8327;SDS011;4201;48.754;8.864;2023-04-06T10:35:21;16.23;;;9.83;;
8327;SDS011;4201;48.754;8.864;2023-04-06T10:37:52;13.10;;;10.40;;
8327;SDS011;4201;48.754;8.864;2023-04-06T10:40:19;12.00;;;9.33;;
8327;SDS011;4201;48.754;8.864;2023-04-06T10:42:46;12.90;;;10.70;;
8327;SDS011;4201;48.754;8.864;2023-04-06T10:45:18;13.90;;;9.50;;
8327;SDS011;4201;48.754;8.864;2023-04-06T10:47:44;16.17;;;9.97;;
8327;SDS011;4201;48.754;8.864;2023-04-06T10:50:12;13.80;;;9.17;;
8327;SDS011;4201;48.754;8.864;2023-04-06T10:52:40;12.80;;;9.20;;
8327;SDS011;4201;48.754;8.864;2023-04-06T10:55:07;14.20;;;10.10;;
8327;SDS011;4201;48.754;8.864;2023-04-06T10:57:34;15.47;;;9.03;;
8327;SDS011;4201;48.754;8.864;2023-04-06T11:00:02;16.27;;;8.77;;
8327;SDS011;4201;48.754;8.864;2023-04-06T11:02:29;13.90;;;9.70;;
8327;SDS011;4201;48.754;8.864;2023-04-06T11:04:55;13.20;;;9.57;;
8327;SDS011;4201;48.754;8.864;2023-04-06T11:07:24;11.80;;;8.20;;
8327;SDS011;4201;48.754;8.864;2023-04-06T11:09:50;12.80;;;9.03;;
8327;SDS011;4201;48.754;8.864;2023-04-06T11:12:20;13.60;;;10.17;;
8327;SDS011;4201;48.754;8.864;2023-04-06T11:14:52;13.43;;;9.20;;
8327;SDS011;4201;48.754;8.864;2023-04-06T11:17:24;10.50;;;8.30;;
8327;SDS011;4201;48.754;8.864;2023-04-06T11:19:51;10.70;;;8.50;;
8327;SDS011;4201;48.754;8.864;2023-04-06T11:22:17;10.57;;;8.40;;
8327;SDS011;4201;48.754;8.864;2023-04-06T11:24:45;12.17;;;10.00;;
8327;SDS011;4201;48.754;8.864;2023-04-06T11:27:11;15.60;;;10.80;;
8327;SDS011;4201;48.754;8.864;2023-04-06T11:29:40;14.40;;;9.47;;
8327;SDS011;4201;48.754;8.864;2023-04-06T11:32:06;13.73;;;9.93;;
8327;SDS011;4201;48.754;8.864;2023-04-06T11:34:34;14.03;;;9.80;;
8327;SDS011;4201;48.754;8.864;2023-04-06T11:37:02;12.53;;;9.00;;
8327;SDS011;4201;48.754;8.864;2023-04-06T11:39:30;11.63;;;9.63;;
8327;SDS011;4201;48.754;8.864;2023-04-06T11:41:59;13.33;;;9.60;;
8327;SDS011;4201;48.754;8.864;2023-04-06T11:44:28;12.73;;;8.50;;
8327;SDS011;4201;48.754;8.864;2023-04-06T11:46:56;11.20;;;8.63;;
8327;SDS011;4201;48.754;8.864;2023-04-06T11:49:26;11.00;;;8.43;;
8327;SDS011;4201;48.754;8.864;2023-04-06T11:51:52;11.87;;;9.43;;
8327;SDS011;4201;48.754;8.864;2023-04-06T11:54:28;9.60;;;8.60;;
8327;SDS011;4201;48.754;8.864;2023-04-06T11:56:55;10.87;;;9.00;;
8327;SDS011;4201;48.754;8.864;2023-04-06T11:59:22;11.13;;;9.80;;
8327;SDS011;4201;48.754;8.864;2023-04-06T12:01:49;12.37;;;9.00;;
8327;SDS011;4201;48.754;8.864;2023-04-06T12:04:15;11.80;;;8.43;;
8327;SDS011;4201;48.754;8.864;2023-04-06T12:06:42;10.20;;;8.40;;
8327;SDS011;4201;48.754;8.864;2023-04-06T12:09:08;11.53;;;8.93;;
8327;SDS011;4201;48.754;8.864;2023-04-06T12:11:35;10.30;;;8.97;;
8327;SDS011;4201;48.754;8.864;2023-04-06T12:14:01;13.30;;;7.90;;
8327;SDS011;4201;48.754;8.864;2023-04-06T12:16:31;9.50;;;7.17;;
8327;SDS011;4201;48.754;8.864;2023-04-06T12:18:57;9.67;;;8.43;;
8327;SDS011;4201;48.754;8.864;2023-04-06T12:21:23;12.10;;;8.77;;
8327;SDS011;4201;48.754;8.864;2023-04-06T12:23:49;10.27;;;8.40;;
8327;SDS011;4201;48.754;8.864;2023-04-06T12:26:16;10.87;;;8.23;;
8327;SDS011;4201;48.754;8.864;2023-04-06T12:28:42;10.03;;;7.90;;
8327;SDS011;4201;48.754;8.864;2023-04-06T12:31:14;11.90;;;8.37;;
8327;SDS011;4201;48.754;8.864;2023-04-06T12:33:42;11.40;;;7.40;;
8327;SDS011;4201;48.754;8.864;2023-04-06T12:36:11;10.83;;;8.17;;
8327;SDS011;4201;48.754;8.864;2023-04-06T12:38:37;12.90;;;8.97;;
8327;SDS011;4201;48.754;8.864;2023-04-06T12:41:04;10.33;;;8.20;;
8327;SDS011;4201;48.754;8.864;2023-04-06T12:43:31;10.40;;;8.10;;
8327;SDS011;4201;48.754;8.864;2023-04-06T12:45:57;9.90;;;8.57;;
8327;SDS011;4201;48.754;8.864;2023-04-06T12:48:24;13.87;;;8.53;;
8327;SDS011;4201;48.754;8.864;2023-04-06T12:50:57;12.87;;;8.50;;
8327;SDS011;4201;48.754;8.864;2023-04-06T12:53:23;8.80;;;7.60;;
8327;SDS011;4201;48.754;8.864;2023-04-06T12:55:50;9.10;;;7.87;;
8327;SDS011;4201;48.754;8.864;2023-04-06T12:58:16;12.37;;;7.00;;
8327;SDS011;4201;48.754;8.864;2023-04-06T13:00:43;9.73;;;7.90;;
8327;SDS011;4201;48.754;8.864;2023-04-06T13:03:09;9.43;;;8.13;;
8327;SDS011;4201;48.754;8.864;2023-04-06T13:05:35;11.23;;;7.97;;
8327;SDS011;4201;48.754;8.864;2023-04-06T13:08:03;9.13;;;7.40;;
8327;SDS011;4201;48.754;8.864;2023-04-06T13:10:29;10.33;;;7.23;;
8327;SDS011;4201;48.754;8.864;2023-04-06T13:12:55;11.50;;;7.97;;
8327;SDS011;4201;48.754;8.864;2023-04-06T13:15:22;10.77;;;8.40;;
8327;SDS011;4201;48.754;8.864;2023-04-06T13:17:48;9.20;;;6.97;;
8327;SDS011;4201;48.754;8.864;2023-04-06T13:20:14;10.03;;;7.57;;
8327;SDS011;4201;48.754;8.864;2023-04-06T13:22:41;10.33;;;7.40;;
8327;SDS011;4201;48.754;8.864;2023-04-06T13:25:08;8.80;;;7.73;;
8327;SDS011;4201;48.754;8.864;2023-04-06T13:27:35;10.90;;;8.33;;
8327;SDS011;4201;48.754;8.864;2023-04-06T13:30:01;13.47;;;7.97;;
8327;SDS011;4201;48.754;8.864;2023-04-06T13:32:28;10.37;;;7.17;;
8327;SDS011;4201;48.754;8.864;2023-04-06T13:34:55;10.17;;;8.23;;
8327;SDS011;4201;48.754;8.864;2023-04-06T13:37:21;11.77;;;8.23;;
8327;SDS011;4201;48.754;8.864;2023-04-06T13:39:47;11.80;;;8.30;;
8327;SDS011;4201;48.754;8.864;2023-04-06T13:42:15;10.90;;;8.20;;
8327;SDS011;4201;48.754;8.864;2023-04-06T13:44:41;13.20;;;9.10;;
8327;SDS011;4201;48.754;8.864;2023-04-06T13:47:07;8.73;;;6.93;;
8327;SDS011;4201;48.754;8.864;2023-04-06T13:49:33;15.13;;;9.17;;
8327;SDS011;4201;48.754;8.864;2023-04-06T13:52:00;13.20;;;7.93;;
8327;SDS011;4201;48.754;8.864;2023-04-06T13:54:27;10.20;;;7.50;;
8327;SDS011;4201;48.754;8.864;2023-04-06T13:56:53;13.83;;;8.73;;
8327;SDS011;4201;48.754;8.864;2023-04-06T13:59:21;9.20;;;7.90;;
8327;SDS011;4201;48.754;8.864;2023-04-06T14:01:47;11.20;;;7.60;;
8327;SDS011;4201;48.754;8.864;2023-04-06T14:04:14;9.87;;;7.80;;
8327;SDS011;4201;48.754;8.864;2023-04-06T14:06:40;11.00;;;8.40;;
8327;SDS011;4201;48.754;8.864;2023-04-06T14:09:06;11.37;;;7.70;;
8327;SDS011;4201;48.754;8.864;2023-04-06T14:11:33;13.00;;;7.63;;
8327;SDS011;4201;48.754;8.864;2023-04-06T14:13:59;12.47;;;8.20;;
8327;SDS011;4201;48.754;8.864;2023-04-06T14:16:27;11.40;;;8.20;;
8327;SDS011;4201;48.754;8.864;2023-04-06T14:18:53;9.40;;;7.70;;
8327;SDS011;4201;48.754;8.864;2023-04-06T14:21:20;10.10;;;7.50;;
8327;SDS011;4201;48.754;8.864;2023-04-06T14:23:46;13.83;;;8.40;;
8327;SDS011;4201;48.754;8.864;2023-04-06T14:26:12;11.47;;;8.60;;
8327;SDS011;4201;48.754;8.864;2023-04-06T14:28:39;9.50;;;7.10;;
8327;SDS011;4201;48.754;8.864;2023-04-06T14:31:09;8.90;;;6.87;;
8327;SDS011;4201;48.754;8.864;2023-04-06T14:33:37;14.87;;;7.93;;
8327;SDS011;4201;48.754;8.864;2023-04-06T14:36:04;13.87;;;8.00;;
8327;SDS011;4201;48.754;8.864;2023-04-06T14:38:31;10.10;;;7.33;;
8327;SDS011;4201;48.754;8.864;2023-04-06T14:40:57;11.00;;;8.07;;
8327;SDS011;4201;48.754;8.864;2023-04-06T14:43:23;10.50;;;7.77;;
8327;SDS011;4201;48.754;8.864;2023-04-06T14:45:50;11.07;;;7.73;;
8327;SDS011;4201;48.754;8.864;2023-04-06T14:48:16;8.87;;;7.80;;
8327;SDS011;4201;48.754;8.864;2023-04-06T14:50:52;13.13;;;9.17;;